X  Sluiten METAR luchtvaart weer gegevens      LFQQ Lille-Lesquin Airport
Temperatuur
14°C Temperatuur
8°C Dauwpunt
67% Vochtigheid



Wind
13 KM/U
8 MPH
4 M/S
7 KTS



250°
WZW
Huidig weer

Veel verspreide wolken Veel verspreide wolken
Luchtdruk 1024.04 (hPa) - 30.24 (inHg)
Zicht 6 (mijl) - 9.7 (km)
Vliegveld
Vliegveld code LFQQ

Locatie : Lille-Lesquin Airport
Afstand: 45 (km)

Metar:
LFQQ 141000Z AUTO 25007KT 190V290 9999 SCT022 BKN037 BKN120 14/08 Q1024 NOSIG

Tijd: 14-04-2024 10:00 CEST